createdAt,value
2023-04-04T00:00:16.308Z,102570.59
2023-04-04T00:03:17.572Z,102562.84
2023-04-04T00:06:43.281Z,102557.28
2023-04-04T00:09:44.237Z,102560.94
2023-04-04T00:12:45.281Z,102552.34
2023-04-04T00:15:46.313Z,102549.84
2023-04-04T00:18:47.303Z,102555.19
2023-04-04T00:21:48.255Z,102555.19
2023-04-04T00:24:49.272Z,102551.59
2023-04-04T00:27:50.268Z,102553.28
2023-04-04T00:30:51.354Z,102552.91
2023-04-04T00:33:52.251Z,102553.22
2023-04-04T00:36:53.292Z,102548.72
2023-04-04T00:39:54.225Z,102544.16
2023-04-04T00:42:55.276Z,102539.97
2023-04-04T00:45:56.405Z,102540.84
2023-04-04T00:48:58.297Z,102528.97
2023-04-04T00:51:59.239Z,102533.19
2023-04-04T00:55:00.314Z,102535.97
2023-04-04T00:58:01.243Z,102526.97
2023-04-04T01:01:02.428Z,102520.16
2023-04-04T01:07:01.711Z,102514.91
2023-04-04T01:10:02.631Z,102513.53
2023-04-04T01:13:03.673Z,102510.78
2023-04-04T01:16:04.628Z,102510.94
2023-04-04T01:19:07.687Z,102507.19
2023-04-04T01:22:09.617Z,102505.44
2023-04-04T01:25:12.689Z,102496.06
2023-04-04T01:28:19.611Z,102500.16
2023-04-04T01:31:20.775Z,102499.38
2023-04-04T01:34:23.672Z,102501.25
2023-04-04T01:37:49.654Z,102491.66
2023-04-04T01:40:51.618Z,102498.00
2023-04-04T01:43:53.653Z,102490.03
2023-04-04T01:46:54.621Z,102499.00
2023-04-04T01:49:55.701Z,102489.09
2023-04-04T01:52:56.660Z,102484.22
2023-04-04T01:55:57.665Z,102480.31
2023-04-04T01:59:01.691Z,102476.31
2023-04-04T02:02:02.644Z,102479.16
2023-04-04T02:05:03.635Z,102483.28
2023-04-04T02:08:04.648Z,102476.91
2023-04-04T02:11:07.769Z,102480.44
2023-04-04T02:14:01.679Z,102466.28
2023-04-04T02:17:02.613Z,102465.28
2023-04-04T02:20:03.676Z,102458.66
2023-04-04T02:23:05.627Z,102460.66
2023-04-04T02:26:06.663Z,102448.88
2023-04-04T02:29:07.605Z,102453.41
2023-04-04T02:32:08.895Z,102454.81
2023-04-04T02:35:09.612Z,102450.31
2023-04-04T02:38:10.641Z,102444.16
2023-04-04T02:41:13.605Z,102445.44
2023-04-04T02:44:16.651Z,102438.44
2023-04-04T02:47:20.629Z,102442.41
2023-04-04T02:50:21.664Z,102432.81
2023-04-04T02:53:27.660Z,102431.56
2023-04-04T02:56:40.646Z,102432.19
2023-04-04T02:59:41.624Z,102433.97
2023-04-04T03:02:42.748Z,102433.31
2023-04-04T03:05:43.628Z,102437.34
2023-04-04T03:08:44.655Z,102432.72
2023-04-04T03:11:45.636Z,102433.75
2023-04-04T03:14:47.749Z,102426.59
2023-04-04T03:17:48.695Z,102426.34
2023-04-04T03:20:52.668Z,102420.13
2023-04-04T03:23:53.640Z,102423.97
2023-04-04T03:26:54.643Z,102421.44
2023-04-04T03:29:55.607Z,102420.53
2023-04-04T03:32:58.797Z,102419.19
2023-04-04T03:35:59.640Z,102417.03
2023-04-04T03:39:00.737Z,102421.28
2023-04-04T03:42:02.631Z,102418.31
2023-04-04T03:45:03.667Z,102418.31
2023-04-04T03:48:04.608Z,102414.06
2023-04-04T03:51:06.646Z,102422.47
2023-04-04T03:54:07.601Z,102420.72
2023-04-04T03:57:08.656Z,102414.44
2023-04-04T04:00:11.629Z,102416.94
2023-04-04T04:03:14.726Z,102420.59
2023-04-04T04:06:16.587Z,102417.88
2023-04-04T04:09:18.647Z,102422.00
2023-04-04T04:12:19.604Z,102417.31
2023-04-04T04:15:20.648Z,102408.06
2023-04-04T04:18:23.594Z,102415.28
2023-04-04T04:21:25.657Z,102409.94
2023-04-04T04:24:26.592Z,102412.97
2023-04-04T04:27:30.658Z,102416.94
2023-04-04T04:30:31.591Z,102419.63
2023-04-04T04:33:32.695Z,102403.09
2023-04-04T04:36:33.617Z,102384.22
2023-04-04T04:39:47.668Z,102401.00
2023-04-04T04:43:14.584Z,102401.16
2023-04-04T04:46:17.717Z,102396.94
2023-04-04T04:49:18.675Z,102398.91
2023-04-04T04:52:19.619Z,102392.25
2023-04-04T04:55:20.652Z,102389.75
2023-04-04T04:58:30.677Z,102393.06
2023-04-04T05:01:34.764Z,102390.16
2023-04-04T05:04:36.632Z,102387.28
2023-04-04T05:07:37.644Z,102385.53
2023-04-04T05:10:38.882Z,102389.94
2023-04-04T05:13:32.746Z,102397.53
2023-04-04T05:16:27.718Z,102403.88
2023-04-04T05:19:28.693Z,102406.81
2023-04-04T05:22:29.651Z,102411.31
2023-04-04T05:25:30.653Z,102404.50
2023-04-04T05:28:31.648Z,102408.84
2023-04-04T05:31:33.637Z,102401.81
2023-04-04T05:34:41.787Z,102404.66
2023-04-04T05:37:44.582Z,102419.72
2023-04-04T05:40:45.668Z,102405.50
2023-04-04T05:43:46.589Z,102413.63
2023-04-04T05:46:50.646Z,102410.13
2023-04-04T05:49:52.569Z,102411.97
2023-04-04T05:52:53.632Z,102415.84
2023-04-04T05:55:54.614Z,102412.91
2023-04-04T05:58:58.680Z,102405.50
2023-04-04T06:02:04.595Z,102413.75
2023-04-04T06:05:09.645Z,102415.13
2023-04-04T06:08:10.601Z,102412.50
2023-04-04T06:11:11.615Z,102415.91
2023-04-04T06:14:05.990Z,102410.50
2023-04-04T06:16:59.658Z,102406.47
2023-04-04T06:20:01.622Z,102405.06
2023-04-04T06:23:02.620Z,102404.31
2023-04-04T06:26:06.602Z,102409.13
2023-04-04T06:29:08.633Z,102401.94
2023-04-04T06:32:11.588Z,102414.44
2023-04-04T06:35:12.798Z,102402.78
2023-04-04T06:38:21.600Z,102398.13
2023-04-04T06:41:25.614Z,102397.41
2023-04-04T06:44:26.575Z,102392.56
2023-04-04T06:47:27.716Z,102383.03
2023-04-04T06:50:29.576Z,102388.44
2023-04-04T06:53:33.604Z,102384.38
2023-04-04T06:56:34.575Z,102384.78
2023-04-04T06:59:35.610Z,102382.72
2023-04-04T07:02:36.694Z,102374.13
2023-04-04T07:05:37.618Z,102380.72
2023-04-04T07:08:39.572Z,102385.53
2023-04-04T07:11:40.637Z,102381.50
2023-04-04T07:14:41.592Z,102372.41
2023-04-04T07:17:42.663Z,102376.44
2023-04-04T07:20:43.582Z,102372.97
2023-04-04T07:23:44.640Z,102368.50
2023-04-04T07:26:45.607Z,102375.25
2023-04-04T07:29:46.661Z,102375.94
2023-04-04T07:32:47.601Z,102371.97
2023-04-04T07:35:48.711Z,102374.03
2023-04-04T07:38:49.581Z,102374.72
2023-04-04T07:41:50.621Z,102371.63
2023-04-04T07:44:51.568Z,102360.03
2023-04-04T07:47:56.648Z,102363.28
2023-04-04T07:50:57.572Z,102366.88
2023-04-04T07:53:58.607Z,102361.09
2023-04-04T07:56:59.576Z,102354.56
2023-04-04T08:00:00.580Z,102354.94
2023-04-04T08:03:09.722Z,102344.81
2023-04-04T08:06:10.618Z,102358.25
2023-04-04T08:09:11.584Z,102344.47
2023-04-04T08:12:15.605Z,102339.72
2023-04-04T08:15:16.612Z,102334.41
2023-04-04T08:18:17.600Z,102332.81
2023-04-04T08:21:18.545Z,102337.22
2023-04-04T08:24:19.617Z,102337.31
2023-04-04T08:27:21.560Z,102340.69
2023-04-04T08:30:22.602Z,102333.03
2023-04-04T08:33:27.046Z,102339.06
2023-04-04T08:36:32.646Z,102336.13
2023-04-04T08:39:33.561Z,102342.16
2023-04-04T08:42:34.598Z,102335.75
2023-04-04T08:45:35.543Z,102344.84
2023-04-04T08:48:37.602Z,102334.91
2023-04-04T08:51:38.581Z,102335.66
2023-04-04T08:54:39.629Z,102328.50
2023-04-04T08:57:40.669Z,102331.44
2023-04-04T09:00:42.665Z,102329.69
2023-04-04T09:03:44.579Z,102329.38
2023-04-04T09:06:45.696Z,102327.38
2023-04-04T09:09:46.668Z,102325.47
2023-04-04T09:12:49.587Z,102315.06
2023-04-04T09:15:51.565Z,102314.56
2023-04-04T09:18:52.654Z,102317.16
2023-04-04T09:21:53.593Z,102318.03
2023-04-04T09:24:54.608Z,102309.25
2023-04-04T09:27:57.579Z,102312.06
2023-04-04T09:31:01.593Z,102315.31
2023-04-04T09:34:02.565Z,102307.97
2023-04-04T09:37:03.647Z,102311.44
2023-04-04T09:40:04.614Z,102308.09
2023-04-04T09:43:07.621Z,102302.75
2023-04-04T09:46:08.605Z,102315.97
2023-04-04T09:49:11.377Z,102308.44
2023-04-04T09:52:13.580Z,102306.34
2023-04-04T09:55:14.608Z,102305.81
2023-04-04T09:58:56.017Z,102307.84
2023-04-04T10:02:05.934Z,102304.28
2023-04-04T10:05:06.935Z,102307.03
2023-04-04T10:08:08.601Z,102307.59
2023-04-04T10:11:13.575Z,102300.41
2023-04-04T10:14:14.607Z,102308.53
2023-04-04T10:17:13.699Z,102299.34
2023-04-04T10:20:11.582Z,102306.53
2023-04-04T10:23:13.551Z,102296.78
2023-04-04T10:26:14.611Z,102302.72
2023-04-04T10:29:15.554Z,102292.47
2023-04-04T10:32:18.606Z,102293.22
2023-04-04T10:35:21.556Z,102293.59
2023-04-04T10:38:22.605Z,102286.56
2023-04-04T10:41:24.558Z,102284.06
2023-04-04T10:44:51.602Z,102280.59
2023-04-04T10:47:52.594Z,102286.03
2023-04-04T10:50:53.562Z,102281.25
2023-04-04T10:53:54.541Z,102282.03
2023-04-04T10:56:55.591Z,102279.31
2023-04-04T11:00:15.573Z,102282.94
2023-04-04T11:03:16.587Z,102284.19
2023-04-04T11:06:27.560Z,102283.66
2023-04-04T11:09:28.569Z,102280.16
2023-04-04T11:12:30.568Z,102271.47
2023-04-04T11:15:34.587Z,102266.50
2023-04-04T11:18:33.382Z,102260.81
2023-04-04T11:21:33.602Z,102260.16
2023-04-04T11:24:34.663Z,102258.25
2023-04-04T11:27:35.637Z,102256.19
2023-04-04T11:30:36.577Z,102256.59
2023-04-04T11:33:40.572Z,102256.50
2023-04-04T11:36:51.638Z,102254.38
2023-04-04T11:40:05.637Z,102256.19
2023-04-04T11:43:09.526Z,102253.94
2023-04-04T11:46:18.644Z,102254.50
2023-04-04T11:49:19.533Z,102247.91
2023-04-04T11:52:28.587Z,102240.78
2023-04-04T11:55:33.529Z,102240.13
2023-04-04T11:58:35.578Z,102243.66
2023-04-04T12:01:36.535Z,102245.88
2023-04-04T12:04:39.848Z,102246.59
2023-04-04T12:07:42.549Z,102241.09
2023-04-04T12:10:50.593Z,102236.84
2023-04-04T12:13:57.526Z,102238.16
2023-04-04T12:16:59.606Z,102236.28
2023-04-04T12:19:53.604Z,102232.06
2023-04-04T12:22:47.610Z,102233.91
2023-04-04T12:25:51.572Z,102230.50
2023-04-04T12:28:52.600Z,102222.75
2023-04-04T12:31:54.565Z,102224.25
2023-04-04T12:34:56.574Z,102217.03
2023-04-04T12:38:09.522Z,102218.66
2023-04-04T12:41:10.806Z,102224.31
2023-04-04T12:44:15.524Z,102227.50
2023-04-04T12:47:22.618Z,102226.59
2023-04-04T12:50:33.525Z,102215.69
2023-04-04T12:53:37.572Z,102217.94
2023-04-04T12:56:39.513Z,102216.66
2023-04-04T12:59:43.584Z,102205.84
2023-04-04T13:02:44.560Z,102198.28
2023-04-04T13:05:47.614Z,102204.22
2023-04-04T13:08:50.592Z,102207.56
2023-04-04T13:12:09.549Z,102202.84
2023-04-04T13:15:20.541Z,102193.25
2023-04-04T13:18:31.574Z,102190.88
2023-04-04T13:21:26.207Z,102191.13
2023-04-04T13:24:19.557Z,102194.41
2023-04-04T13:27:20.504Z,102195.97
2023-04-04T13:30:21.585Z,102200.78
2023-04-04T13:33:22.513Z,102195.97
2023-04-04T13:36:23.618Z,102200.38
2023-04-04T13:39:24.514Z,102195.53
2023-04-04T13:42:25.820Z,102187.75
2023-04-04T13:45:26.523Z,102185.09
2023-04-04T13:48:27.572Z,102185.78
2023-04-04T13:51:28.516Z,102189.34
2023-04-04T13:54:29.613Z,102193.88
2023-04-04T13:57:30.529Z,102188.00
2023-04-04T14:00:32.621Z,102190.34
2023-04-04T14:03:33.552Z,102186.84
2023-04-04T14:06:34.557Z,102184.38
2023-04-04T14:09:35.526Z,102184.38
2023-04-04T14:12:36.540Z,102177.50
2023-04-04T14:15:37.592Z,102181.34
2023-04-04T14:18:38.560Z,102175.94
2023-04-04T14:21:39.505Z,102174.84
2023-04-04T14:24:40.574Z,102172.97
2023-04-04T14:27:41.531Z,102166.91
2023-04-04T14:30:42.556Z,102173.50
2023-04-04T14:33:43.521Z,102164.03
2023-04-04T14:36:44.610Z,102169.13
2023-04-04T14:39:45.536Z,102161.69
2023-04-04T14:42:46.697Z,102167.78
2023-04-04T14:45:47.518Z,102168.84
2023-04-04T14:48:48.557Z,102170.44
2023-04-04T14:51:49.493Z,102155.03
2023-04-04T14:54:50.585Z,102152.78
2023-04-04T14:58:01.939Z,102160.59
2023-04-04T15:01:03.668Z,102151.84
2023-04-04T15:04:04.562Z,102142.91
2023-04-04T15:07:09.556Z,102146.59
2023-04-04T15:10:10.506Z,102142.16
2023-04-04T15:13:11.566Z,102148.34
2023-04-04T15:16:12.535Z,102148.53
2023-04-04T15:19:13.566Z,102151.56
2023-04-04T15:22:14.516Z,102145.75
2023-04-04T15:25:15.607Z,102141.78
2023-04-04T15:28:16.530Z,102146.78
2023-04-04T15:31:20.571Z,102148.84
2023-04-04T15:34:21.554Z,102143.63
2023-04-04T15:37:22.530Z,102146.41
2023-04-04T15:40:23.492Z,102147.63
2023-04-04T15:43:24.707Z,102143.31
2023-04-04T15:46:25.565Z,102141.28
2023-04-04T15:49:26.535Z,102134.78
2023-04-04T15:52:27.503Z,102139.06
2023-04-04T15:55:28.549Z,102120.47
2023-04-04T15:58:29.503Z,102133.91
2023-04-04T16:01:30.543Z,102132.09
2023-04-04T16:04:31.505Z,102132.09
2023-04-04T16:07:32.559Z,102131.50
2023-04-04T16:10:33.503Z,102128.50
2023-04-04T16:13:34.531Z,102124.31
2023-04-04T16:16:35.499Z,102130.00
2023-04-04T16:19:36.526Z,102129.81
2023-04-04T16:22:37.465Z,102121.44
2023-04-04T16:25:38.537Z,102117.50
2023-04-04T16:28:39.482Z,102120.72
2023-04-04T16:31:40.620Z,102119.84
2023-04-04T16:34:41.499Z,102122.69
2023-04-04T16:37:42.566Z,102120.84
2023-04-04T16:40:43.490Z,102122.47
2023-04-04T16:43:44.685Z,102111.47
2023-04-04T16:46:45.527Z,102115.28
2023-04-04T16:49:46.567Z,102123.69
2023-04-04T16:52:47.532Z,102122.84
2023-04-04T16:55:48.528Z,102114.16
2023-04-04T16:58:51.543Z,102112.59
2023-04-04T17:01:55.536Z,102109.44
2023-04-04T17:04:56.496Z,102119.44
2023-04-04T17:07:57.575Z,102117.84
2023-04-04T17:10:58.542Z,102113.19
2023-04-04T17:13:59.548Z,102121.69
2023-04-04T17:17:00.654Z,102120.06
2023-04-04T17:20:01.559Z,102126.13
2023-04-04T17:23:02.495Z,102130.13
2023-04-04T17:26:03.524Z,102130.59
2023-04-04T17:29:04.490Z,102124.78
2023-04-04T17:32:06.572Z,102131.78
2023-04-04T17:35:07.509Z,102136.63
2023-04-04T17:38:08.522Z,102133.78
2023-04-04T17:41:10.473Z,102129.88
2023-04-04T17:44:11.735Z,102130.75
2023-04-04T17:47:12.509Z,102126.63
2023-04-04T17:50:13.534Z,102121.66
2023-04-04T17:53:14.479Z,102121.19
2023-04-04T17:56:15.555Z,102125.72
2023-04-04T17:59:16.562Z,102129.06
2023-04-04T18:02:17.528Z,102127.25
2023-04-04T18:05:19.483Z,102128.28
2023-04-04T18:08:20.533Z,102126.59
2023-04-04T18:11:21.496Z,102122.94
2023-04-04T18:14:22.546Z,102124.16
2023-04-04T18:17:23.496Z,102120.41
2023-04-04T18:20:34.162Z,102129.41
2023-04-04T18:23:36.604Z,102130.00
2023-04-04T18:26:30.535Z,102126.16
2023-04-04T18:29:32.553Z,102128.06
2023-04-04T18:32:34.554Z,102127.78
2023-04-04T18:35:35.490Z,102131.19
2023-04-04T18:38:36.507Z,102132.69
2023-04-04T18:41:37.486Z,102125.25
2023-04-04T18:44:39.627Z,102124.47
2023-04-04T18:47:40.570Z,102120.75
2023-04-04T18:50:41.853Z,102121.09
2023-04-04T18:53:42.481Z,102127.94
2023-04-04T18:56:43.509Z,102128.41
2023-04-04T18:59:44.538Z,102121.38
2023-04-04T19:02:47.617Z,102127.25
2023-04-04T19:05:49.470Z,102124.59
2023-04-04T19:08:52.625Z,102126.22
2023-04-04T19:11:53.471Z,102123.75
2023-04-04T19:14:54.561Z,102128.28
2023-04-04T19:17:55.569Z,102129.16
2023-04-04T19:20:56.524Z,102129.38
2023-04-04T19:23:57.452Z,102124.41
2023-04-04T19:26:58.526Z,102129.28
2023-04-04T19:29:59.476Z,102128.94
2023-04-04T19:33:00.550Z,102125.38
2023-04-04T19:36:06.502Z,102141.66
2023-04-04T19:39:07.540Z,102134.13
2023-04-04T19:42:08.462Z,102133.66
2023-04-04T19:45:10.650Z,102128.75
2023-04-04T19:48:11.513Z,102127.13
2023-04-04T19:51:12.515Z,102126.69
2023-04-04T19:54:13.485Z,102128.50
2023-04-04T19:57:21.505Z,102126.75
2023-04-04T20:00:29.459Z,102131.03
2023-04-04T20:03:45.506Z,102132.31
2023-04-04T20:06:46.518Z,102133.75
2023-04-04T20:09:48.513Z,102139.38
2023-04-04T20:12:49.479Z,102138.59
2023-04-04T20:15:56.699Z,102135.09
2023-04-04T20:18:59.482Z,102139.06
2023-04-04T20:22:01.508Z,102135.78
2023-04-04T20:24:55.686Z,102135.94
2023-04-04T20:27:49.506Z,102138.06
2023-04-04T20:30:50.475Z,102139.56
2023-04-04T20:33:52.536Z,102140.00
2023-04-04T20:36:54.466Z,102135.31
2023-04-04T20:40:02.508Z,102136.25
2023-04-04T20:43:03.439Z,102127.25
2023-04-04T20:46:04.845Z,102141.13
2023-04-04T20:49:05.487Z,102125.53
2023-04-04T20:52:06.526Z,102138.47
2023-04-04T20:55:07.481Z,102130.84
2023-04-04T20:58:10.515Z,102131.50
2023-04-04T21:01:12.462Z,102132.81
2023-04-04T21:04:13.563Z,102138.06
2023-04-04T21:07:14.460Z,102128.81
2023-04-04T21:10:15.541Z,102125.28
2023-04-04T21:13:16.463Z,102118.34
2023-04-04T21:16:29.581Z,102129.88
2023-04-04T21:19:33.443Z,102119.72
2023-04-04T21:22:34.465Z,102116.94
2023-04-04T21:25:47.602Z,102118.72
2023-04-04T21:28:44.480Z,102113.63
2023-04-04T21:31:49.600Z,102117.69
2023-04-04T21:34:50.483Z,102115.28
2023-04-04T21:37:51.451Z,102110.28
2023-04-04T21:40:52.530Z,102117.50
2023-04-04T21:43:53.456Z,102115.22
2023-04-04T21:46:54.690Z,102110.94
2023-04-04T21:49:55.460Z,102117.56
2023-04-04T21:52:56.486Z,102116.97
2023-04-04T21:55:57.460Z,102118.25
2023-04-04T21:58:58.532Z,102120.06
2023-04-04T22:01:59.489Z,102113.50
2023-04-04T22:05:00.520Z,102116.38
2023-04-04T22:08:01.461Z,102108.47
2023-04-04T22:11:04.536Z,102105.53
2023-04-04T22:14:10.446Z,102100.09
2023-04-04T22:17:11.481Z,102105.03
2023-04-04T22:20:18.418Z,102097.97
2023-04-04T22:23:21.026Z,102101.44
2023-04-04T22:26:28.983Z,102086.44
2023-04-04T22:29:22.490Z,102086.63
2023-04-04T22:32:23.451Z,102086.56
2023-04-04T22:35:24.506Z,102084.66
2023-04-04T22:38:25.444Z,102081.19
2023-04-04T22:41:26.498Z,102081.38
2023-04-04T22:44:27.440Z,102079.16
2023-04-04T22:47:28.704Z,102078.47
2023-04-04T22:50:33.444Z,102079.03
2023-04-04T22:53:34.472Z,102079.22
2023-04-04T22:56:35.434Z,102082.50
2023-04-04T22:59:36.546Z,102077.91
2023-04-04T23:02:37.489Z,102069.75
2023-04-04T23:05:38.479Z,102070.25
2023-04-04T23:08:39.445Z,102073.31
2023-04-04T23:11:40.479Z,102076.72
2023-04-04T23:14:45.452Z,102067.00
2023-04-04T23:17:46.560Z,102066.97
2023-04-04T23:20:47.462Z,102072.38
2023-04-04T23:23:48.483Z,102063.78
2023-04-04T23:26:49.501Z,102056.59
2023-04-04T23:29:50.479Z,102052.25
2023-04-04T23:32:51.444Z,102052.25
2023-04-04T23:35:52.484Z,102053.13
2023-04-04T23:38:53.425Z,102051.13
2023-04-04T23:41:54.493Z,102045.75
2023-04-04T23:44:55.478Z,102043.66
2023-04-04T23:47:56.590Z,102043.69
2023-04-04T23:51:00.472Z,102046.81
2023-04-04T23:54:01.471Z,102042.72
2023-04-04T23:57:03.420Z,102046.19
